Terminal Aerodrome Forecast
Issued by NWS Charleston, WV

Current Version | Previous Version | Graphics & Text | Print | Product List | Glossary On
Versions: 1 2 3 4 5 6 7 8 9 10 11 12 13 14 15 16 17 18 19 20 21 22 23 24 25
000
FTUS41 KRLX 270947 AAB
TAFEKN
TAF AMD
KEKN 270947Z 2710/2806 00000KT P6SM VCTS SCT025CB BKN040
     FM271200 32004KT P6SM BKN040
     FM271900 32004KT P6SM VCTS BKN050CB
     FM280200 00000KT P6SM SCT040=

USA.gov is the U.S. government's official web portal to all federal, state and local government web resources and services.